sensor_id;sensor_type;location;lat;lon;timestamp;temperature;humidity
5576;DHT22;2810;50.134;8.626;2023-04-25T00:01:03;9.00;99.90
5576;DHT22;2810;50.134;8.626;2023-04-25T00:03:30;9.00;99.90
5576;DHT22;2810;50.134;8.626;2023-04-25T00:05:56;8.90;99.90
5576;DHT22;2810;50.134;8.626;2023-04-25T00:08:22;8.90;99.90
5576;DHT22;2810;50.134;8.626;2023-04-25T00:10:47;9.00;99.90
5576;DHT22;2810;50.134;8.626;2023-04-25T00:13:14;8.90;99.90
5576;DHT22;2810;50.134;8.626;2023-04-25T00:15:39;8.80;99.90
5576;DHT22;2810;50.134;8.626;2023-04-25T00:18:07;8.80;99.90
5576;DHT22;2810;50.134;8.626;2023-04-25T00:20:32;8.80;99.90
5576;DHT22;2810;50.134;8.626;2023-04-25T00:22:57;8.80;99.90
5576;DHT22;2810;50.134;8.626;2023-04-25T00:25:23;8.80;99.90
5576;DHT22;2810;50.134;8.626;2023-04-25T00:27:48;8.80;99.90
5576;DHT22;2810;50.134;8.626;2023-04-25T00:30:14;8.80;99.90
5576;DHT22;2810;50.134;8.626;2023-04-25T00:32:39;8.80;99.90
5576;DHT22;2810;50.134;8.626;2023-04-25T00:35:05;8.80;99.90
5576;DHT22;2810;50.134;8.626;2023-04-25T00:37:31;8.80;99.90
5576;DHT22;2810;50.134;8.626;2023-04-25T00:39:57;8.80;99.90
5576;DHT22;2810;50.134;8.626;2023-04-25T00:42:23;8.80;99.90
5576;DHT22;2810;50.134;8.626;2023-04-25T00:44:49;8.80;99.90
5576;DHT22;2810;50.134;8.626;2023-04-25T00:47:15;8.80;99.90
5576;DHT22;2810;50.134;8.626;2023-04-25T00:49:40;8.70;99.90
5576;DHT22;2810;50.134;8.626;2023-04-25T00:52:06;8.70;99.90
5576;DHT22;2810;50.134;8.626;2023-04-25T00:54:31;8.80;99.90
5576;DHT22;2810;50.134;8.626;2023-04-25T00:56:57;8.70;99.90
5576;DHT22;2810;50.134;8.626;2023-04-25T00:59:22;8.80;99.90
5576;DHT22;2810;50.134;8.626;2023-04-25T01:01:48;8.80;99.90
5576;DHT22;2810;50.134;8.626;2023-04-25T01:04:14;8.90;99.90
5576;DHT22;2810;50.134;8.626;2023-04-25T01:06:40;8.90;99.90
5576;DHT22;2810;50.134;8.626;2023-04-25T01:09:05;8.80;99.90
5576;DHT22;2810;50.134;8.626;2023-04-25T01:11:31;8.80;99.90
5576;DHT22;2810;50.134;8.626;2023-04-25T01:13:56;8.80;99.90
5576;DHT22;2810;50.134;8.626;2023-04-25T01:16:22;8.80;99.90
5576;DHT22;2810;50.134;8.626;2023-04-25T01:18:49;8.90;99.90
5576;DHT22;2810;50.134;8.626;2023-04-25T01:21:15;8.90;99.90
5576;DHT22;2810;50.134;8.626;2023-04-25T01:23:41;8.90;99.90
5576;DHT22;2810;50.134;8.626;2023-04-25T01:26:08;8.80;99.90
5576;DHT22;2810;50.134;8.626;2023-04-25T01:28:34;8.60;99.90
5576;DHT22;2810;50.134;8.626;2023-04-25T01:31:00;8.60;99.90
5576;DHT22;2810;50.134;8.626;2023-04-25T01:33:26;8.60;99.90
5576;DHT22;2810;50.134;8.626;2023-04-25T01:35:51;8.60;99.90
5576;DHT22;2810;50.134;8.626;2023-04-25T01:38:17;8.60;99.90
5576;DHT22;2810;50.134;8.626;2023-04-25T01:40:42;8.60;99.90
5576;DHT22;2810;50.134;8.626;2023-04-25T01:43:09;8.60;99.90
5576;DHT22;2810;50.134;8.626;2023-04-25T01:45:37;8.50;99.90
5576;DHT22;2810;50.134;8.626;2023-04-25T01:48:07;8.50;99.90
5576;DHT22;2810;50.134;8.626;2023-04-25T01:50:32;8.60;99.90
5576;DHT22;2810;50.134;8.626;2023-04-25T01:52:58;8.60;99.90
5576;DHT22;2810;50.134;8.626;2023-04-25T01:55:23;8.60;99.90
5576;DHT22;2810;50.134;8.626;2023-04-25T01:57:49;8.50;99.90
5576;DHT22;2810;50.134;8.626;2023-04-25T02:00:14;8.50;99.90
5576;DHT22;2810;50.134;8.626;2023-04-25T02:02:40;8.50;99.90
5576;DHT22;2810;50.134;8.626;2023-04-25T02:05:06;8.50;99.90
5576;DHT22;2810;50.134;8.626;2023-04-25T02:07:31;8.50;99.90
5576;DHT22;2810;50.134;8.626;2023-04-25T02:09:57;8.50;99.90
5576;DHT22;2810;50.134;8.626;2023-04-25T02:12:22;8.50;99.90
5576;DHT22;2810;50.134;8.626;2023-04-25T02:14:48;8.50;99.90
5576;DHT22;2810;50.134;8.626;2023-04-25T02:17:13;8.50;99.90
5576;DHT22;2810;50.134;8.626;2023-04-25T02:19:39;8.60;99.90
5576;DHT22;2810;50.134;8.626;2023-04-25T02:22:04;8.50;99.90
5576;DHT22;2810;50.134;8.626;2023-04-25T02:24:30;8.50;99.90
5576;DHT22;2810;50.134;8.626;2023-04-25T02:26:57;8.50;99.90
5576;DHT22;2810;50.134;8.626;2023-04-25T02:29:22;8.50;99.90
5576;DHT22;2810;50.134;8.626;2023-04-25T02:31:48;8.40;99.90
5576;DHT22;2810;50.134;8.626;2023-04-25T02:34:13;8.50;99.90
5576;DHT22;2810;50.134;8.626;2023-04-25T02:36:39;8.50;99.90
5576;DHT22;2810;50.134;8.626;2023-04-25T02:39:04;8.40;99.90
5576;DHT22;2810;50.134;8.626;2023-04-25T02:41:30;8.40;99.90
5576;DHT22;2810;50.134;8.626;2023-04-25T02:43:55;8.40;99.90
5576;DHT22;2810;50.134;8.626;2023-04-25T02:46:21;8.40;99.90
5576;DHT22;2810;50.134;8.626;2023-04-25T02:48:46;8.40;99.90
5576;DHT22;2810;50.134;8.626;2023-04-25T02:51:12;8.40;99.90
5576;DHT22;2810;50.134;8.626;2023-04-25T02:53:37;8.30;99.90
5576;DHT22;2810;50.134;8.626;2023-04-25T02:56:03;8.30;99.90
5576;DHT22;2810;50.134;8.626;2023-04-25T02:58:29;8.30;99.90
5576;DHT22;2810;50.134;8.626;2023-04-25T03:00:54;8.30;99.90
5576;DHT22;2810;50.134;8.626;2023-04-25T03:03:20;8.30;99.90
5576;DHT22;2810;50.134;8.626;2023-04-25T03:05:49;8.40;99.90
5576;DHT22;2810;50.134;8.626;2023-04-25T03:08:16;8.40;99.90
5576;DHT22;2810;50.134;8.626;2023-04-25T03:10:41;8.40;99.90
5576;DHT22;2810;50.134;8.626;2023-04-25T03:13:07;9.00;99.90
5576;DHT22;2810;50.134;8.626;2023-04-25T03:15:32;8.40;99.90
5576;DHT22;2810;50.134;8.626;2023-04-25T03:17:58;8.50;99.90
5576;DHT22;2810;50.134;8.626;2023-04-25T03:20:23;8.50;99.90
5576;DHT22;2810;50.134;8.626;2023-04-25T03:22:49;8.50;99.90
5576;DHT22;2810;50.134;8.626;2023-04-25T03:25:14;8.50;99.90
5576;DHT22;2810;50.134;8.626;2023-04-25T03:27:39;8.40;99.90
5576;DHT22;2810;50.134;8.626;2023-04-25T03:30:05;8.40;99.90
5576;DHT22;2810;50.134;8.626;2023-04-25T03:32:31;8.40;99.90
5576;DHT22;2810;50.134;8.626;2023-04-25T03:34:57;8.30;99.90
5576;DHT22;2810;50.134;8.626;2023-04-25T03:37:22;8.20;99.90
5576;DHT22;2810;50.134;8.626;2023-04-25T03:39:48;8.20;99.90
5576;DHT22;2810;50.134;8.626;2023-04-25T03:42:13;8.20;99.90
5576;DHT22;2810;50.134;8.626;2023-04-25T03:44:39;8.20;99.90
5576;DHT22;2810;50.134;8.626;2023-04-25T03:47:05;8.20;99.90
5576;DHT22;2810;50.134;8.626;2023-04-25T03:49:32;8.30;99.90
5576;DHT22;2810;50.134;8.626;2023-04-25T03:51:57;8.20;99.90
5576;DHT22;2810;50.134;8.626;2023-04-25T03:54:23;8.20;99.90
5576;DHT22;2810;50.134;8.626;2023-04-25T03:56:48;8.30;99.90
5576;DHT22;2810;50.134;8.626;2023-04-25T03:59:14;8.30;99.90
5576;DHT22;2810;50.134;8.626;2023-04-25T04:01:39;8.30;99.90
5576;DHT22;2810;50.134;8.626;2023-04-25T04:04:05;8.30;99.90
5576;DHT22;2810;50.134;8.626;2023-04-25T04:06:30;8.20;99.90
5576;DHT22;2810;50.134;8.626;2023-04-25T04:08:55;8.10;99.90
5576;DHT22;2810;50.134;8.626;2023-04-25T04:11:21;8.20;99.90
5576;DHT22;2810;50.134;8.626;2023-04-25T04:13:47;8.10;99.90
5576;DHT22;2810;50.134;8.626;2023-04-25T04:16:12;8.10;99.90
5576;DHT22;2810;50.134;8.626;2023-04-25T04:18:38;8.60;99.90
5576;DHT22;2810;50.134;8.626;2023-04-25T04:21:03;7.90;99.90
5576;DHT22;2810;50.134;8.626;2023-04-25T04:23:29;8.20;99.90
5576;DHT22;2810;50.134;8.626;2023-04-25T04:25:54;7.90;99.90
5576;DHT22;2810;50.134;8.626;2023-04-25T04:28:21;7.90;99.90
5576;DHT22;2810;50.134;8.626;2023-04-25T04:30:47;7.80;99.90
5576;DHT22;2810;50.134;8.626;2023-04-25T04:33:13;7.90;99.90
5576;DHT22;2810;50.134;8.626;2023-04-25T04:35:40;7.80;99.90
5576;DHT22;2810;50.134;8.626;2023-04-25T04:38:06;7.70;99.90
5576;DHT22;2810;50.134;8.626;2023-04-25T04:40:32;7.70;99.90
5576;DHT22;2810;50.134;8.626;2023-04-25T04:42:57;7.70;99.90
5576;DHT22;2810;50.134;8.626;2023-04-25T04:45:23;7.60;99.90
5576;DHT22;2810;50.134;8.626;2023-04-25T04:47:49;7.60;99.90
5576;DHT22;2810;50.134;8.626;2023-04-25T04:50:14;7.50;99.90
5576;DHT22;2810;50.134;8.626;2023-04-25T04:52:40;7.60;99.90
5576;DHT22;2810;50.134;8.626;2023-04-25T04:55:05;7.50;99.90
5576;DHT22;2810;50.134;8.626;2023-04-25T04:57:31;7.50;99.90
5576;DHT22;2810;50.134;8.626;2023-04-25T04:59:58;7.60;99.90
5576;DHT22;2810;50.134;8.626;2023-04-25T05:02:24;7.70;99.90
5576;DHT22;2810;50.134;8.626;2023-04-25T05:04:49;7.70;99.90
5576;DHT22;2810;50.134;8.626;2023-04-25T05:07:16;7.70;99.90
5576;DHT22;2810;50.134;8.626;2023-04-25T05:09:42;7.80;99.90
5576;DHT22;2810;50.134;8.626;2023-04-25T05:12:07;7.90;99.90
5576;DHT22;2810;50.134;8.626;2023-04-25T05:14:33;7.90;99.90
5576;DHT22;2810;50.134;8.626;2023-04-25T05:16:58;8.00;99.90
5576;DHT22;2810;50.134;8.626;2023-04-25T05:19:24;8.10;99.90
5576;DHT22;2810;50.134;8.626;2023-04-25T05:21:50;8.10;99.90
5576;DHT22;2810;50.134;8.626;2023-04-25T05:24:15;8.20;99.90
5576;DHT22;2810;50.134;8.626;2023-04-25T05:26:41;8.20;99.90
5576;DHT22;2810;50.134;8.626;2023-04-25T05:29:06;8.20;99.90
5576;DHT22;2810;50.134;8.626;2023-04-25T05:31:32;8.30;99.90
5576;DHT22;2810;50.134;8.626;2023-04-25T05:33:57;8.40;99.90
5576;DHT22;2810;50.134;8.626;2023-04-25T05:36:23;8.40;99.90
5576;DHT22;2810;50.134;8.626;2023-04-25T05:38:48;8.50;99.90
5576;DHT22;2810;50.134;8.626;2023-04-25T05:41:14;8.60;99.90
5576;DHT22;2810;50.134;8.626;2023-04-25T05:43:39;8.70;99.90
5576;DHT22;2810;50.134;8.626;2023-04-25T05:46:10;8.80;99.90
5576;DHT22;2810;50.134;8.626;2023-04-25T05:48:36;8.90;99.90
5576;DHT22;2810;50.134;8.626;2023-04-25T05:51:01;9.10;99.90
5576;DHT22;2810;50.134;8.626;2023-04-25T05:53:26;9.20;99.90
5576;DHT22;2810;50.134;8.626;2023-04-25T05:55:52;9.20;99.90
5576;DHT22;2810;50.134;8.626;2023-04-25T05:58:17;9.30;99.90
5576;DHT22;2810;50.134;8.626;2023-04-25T06:00:43;9.40;99.90
5576;DHT22;2810;50.134;8.626;2023-04-25T06:03:08;9.40;99.90
5576;DHT22;2810;50.134;8.626;2023-04-25T06:05:38;9.50;99.90
5576;DHT22;2810;50.134;8.626;2023-04-25T06:08:04;9.60;99.90
5576;DHT22;2810;50.134;8.626;2023-04-25T06:10:29;9.70;99.90
5576;DHT22;2810;50.134;8.626;2023-04-25T06:12:55;9.80;99.90
5576;DHT22;2810;50.134;8.626;2023-04-25T06:15:20;9.90;99.90
5576;DHT22;2810;50.134;8.626;2023-04-25T06:17:46;10.10;99.90
5576;DHT22;2810;50.134;8.626;2023-04-25T06:20:11;10.50;99.90
5576;DHT22;2810;50.134;8.626;2023-04-25T06:22:37;10.70;99.90
5576;DHT22;2810;50.134;8.626;2023-04-25T06:25:02;10.80;99.90
5576;DHT22;2810;50.134;8.626;2023-04-25T06:27:29;10.90;99.90
5576;DHT22;2810;50.134;8.626;2023-04-25T06:29:55;11.10;99.90
5576;DHT22;2810;50.134;8.626;2023-04-25T06:32:20;11.40;99.90
5576;DHT22;2810;50.134;8.626;2023-04-25T06:34:46;11.80;99.90
5576;DHT22;2810;50.134;8.626;2023-04-25T06:37:11;12.30;99.90
5576;DHT22;2810;50.134;8.626;2023-04-25T06:39:36;12.80;99.90
5576;DHT22;2810;50.134;8.626;2023-04-25T06:42:02;13.20;99.90
5576;DHT22;2810;50.134;8.626;2023-04-25T06:44:27;13.40;99.90
5576;DHT22;2810;50.134;8.626;2023-04-25T06:46:54;13.30;99.90
5576;DHT22;2810;50.134;8.626;2023-04-25T06:49:20;13.40;99.90
5576;DHT22;2810;50.134;8.626;2023-04-25T06:51:45;13.70;99.90
5576;DHT22;2810;50.134;8.626;2023-04-25T06:54:11;14.20;99.90
5576;DHT22;2810;50.134;8.626;2023-04-25T06:56:36;14.20;99.90
5576;DHT22;2810;50.134;8.626;2023-04-25T06:59:01;13.90;99.90
5576;DHT22;2810;50.134;8.626;2023-04-25T07:01:27;13.70;99.90
5576;DHT22;2810;50.134;8.626;2023-04-25T07:03:52;14.00;99.90
5576;DHT22;2810;50.134;8.626;2023-04-25T07:06:18;13.80;99.90
5576;DHT22;2810;50.134;8.626;2023-04-25T07:08:43;13.40;99.90
5576;DHT22;2810;50.134;8.626;2023-04-25T07:11:09;12.90;99.90
5576;DHT22;2810;50.134;8.626;2023-04-25T07:13:34;12.60;99.90
5576;DHT22;2810;50.134;8.626;2023-04-25T07:15:59;12.50;99.90
5576;DHT22;2810;50.134;8.626;2023-04-25T07:18:25;12.50;99.90
5576;DHT22;2810;50.134;8.626;2023-04-25T07:20:50;12.80;99.90
5576;DHT22;2810;50.134;8.626;2023-04-25T07:23:16;13.20;99.90
5576;DHT22;2810;50.134;8.626;2023-04-25T07:25:41;13.10;99.90
5576;DHT22;2810;50.134;8.626;2023-04-25T07:28:07;12.90;99.90
5576;DHT22;2810;50.134;8.626;2023-04-25T07:30:32;12.80;99.90
5576;DHT22;2810;50.134;8.626;2023-04-25T07:32:59;12.70;99.90
5576;DHT22;2810;50.134;8.626;2023-04-25T07:35:24;12.70;99.90
5576;DHT22;2810;50.134;8.626;2023-04-25T07:37:50;13.10;99.90
5576;DHT22;2810;50.134;8.626;2023-04-25T07:40:15;12.90;99.90
5576;DHT22;2810;50.134;8.626;2023-04-25T07:42:41;13.60;99.90
5576;DHT22;2810;50.134;8.626;2023-04-25T07:45:07;13.60;99.90
5576;DHT22;2810;50.134;8.626;2023-04-25T07:47:32;13.60;99.90
5576;DHT22;2810;50.134;8.626;2023-04-25T07:49:58;13.10;99.90
5576;DHT22;2810;50.134;8.626;2023-04-25T07:52:23;12.90;99.90
5576;DHT22;2810;50.134;8.626;2023-04-25T07:54:49;12.90;99.90
5576;DHT22;2810;50.134;8.626;2023-04-25T07:57:14;13.10;99.90
5576;DHT22;2810;50.134;8.626;2023-04-25T07:59:40;13.40;99.90
5576;DHT22;2810;50.134;8.626;2023-04-25T08:02:05;13.60;99.90
5576;DHT22;2810;50.134;8.626;2023-04-25T08:04:31;14.40;99.90
5576;DHT22;2810;50.134;8.626;2023-04-25T08:06:56;15.40;99.90
5576;DHT22;2810;50.134;8.626;2023-04-25T08:09:22;15.40;99.90
5576;DHT22;2810;50.134;8.626;2023-04-25T08:11:47;15.40;99.90
5576;DHT22;2810;50.134;8.626;2023-04-25T08:14:13;15.50;95.80
5576;DHT22;2810;50.134;8.626;2023-04-25T08:16:38;15.10;95.00
5576;DHT22;2810;50.134;8.626;2023-04-25T08:19:04;14.50;97.70
5576;DHT22;2810;50.134;8.626;2023-04-25T08:21:30;13.70;98.80
5576;DHT22;2810;50.134;8.626;2023-04-25T08:23:56;13.20;99.60
5576;DHT22;2810;50.134;8.626;2023-04-25T08:26:23;13.60;98.80
5576;DHT22;2810;50.134;8.626;2023-04-25T08:28:49;14.00;96.80
5576;DHT22;2810;50.134;8.626;2023-04-25T08:31:14;13.20;98.00
5576;DHT22;2810;50.134;8.626;2023-04-25T08:33:40;13.40;99.40
5576;DHT22;2810;50.134;8.626;2023-04-25T08:36:05;14.00;98.80
5576;DHT22;2810;50.134;8.626;2023-04-25T08:38:31;14.40;96.10
5576;DHT22;2810;50.134;8.626;2023-04-25T08:40:56;14.50;96.20
5576;DHT22;2810;50.134;8.626;2023-04-25T08:43:22;15.70;95.60
5576;DHT22;2810;50.134;8.626;2023-04-25T08:45:48;16.60;90.70
5576;DHT22;2810;50.134;8.626;2023-04-25T08:48:14;16.90;86.70
5576;DHT22;2810;50.134;8.626;2023-04-25T08:50:45;16.30;88.90
5576;DHT22;2810;50.134;8.626;2023-04-25T08:53:11;16.20;91.10
5576;DHT22;2810;50.134;8.626;2023-04-25T08:55:41;15.70;89.30
5576;DHT22;2810;50.134;8.626;2023-04-25T08:58:07;15.30;89.50
5576;DHT22;2810;50.134;8.626;2023-04-25T09:00:32;15.70;90.70
5576;DHT22;2810;50.134;8.626;2023-04-25T09:02:58;16.30;89.90
5576;DHT22;2810;50.134;8.626;2023-04-25T09:05:24;17.80;85.20
5576;DHT22;2810;50.134;8.626;2023-04-25T09:07:49;18.70;80.50
5576;DHT22;2810;50.134;8.626;2023-04-25T09:10:15;19.20;74.70
5576;DHT22;2810;50.134;8.626;2023-04-25T09:12:40;19.20;71.80
5576;DHT22;2810;50.134;8.626;2023-04-25T09:15:07;18.50;69.80
5576;DHT22;2810;50.134;8.626;2023-04-25T09:17:33;18.40;69.80
5576;DHT22;2810;50.134;8.626;2023-04-25T09:20:06;19.00;68.50
5576;DHT22;2810;50.134;8.626;2023-04-25T09:22:32;19.60;65.10
5576;DHT22;2810;50.134;8.626;2023-04-25T09:24:58;18.80;65.60
5576;DHT22;2810;50.134;8.626;2023-04-25T09:27:27;17.80;66.80
5576;DHT22;2810;50.134;8.626;2023-04-25T09:29:56;17.10;71.50
5576;DHT22;2810;50.134;8.626;2023-04-25T09:32:23;17.30;70.30
5576;DHT22;2810;50.134;8.626;2023-04-25T09:34:52;17.10;70.70
5576;DHT22;2810;50.134;8.626;2023-04-25T09:39:47;18.80;65.70
5576;DHT22;2810;50.134;8.626;2023-04-25T09:42:13;19.80;63.10
5576;DHT22;2810;50.134;8.626;2023-04-25T09:44:41;20.50;61.60
5576;DHT22;2810;50.134;8.626;2023-04-25T09:47:09;20.60;59.60
5576;DHT22;2810;50.134;8.626;2023-04-25T09:49:34;19.40;59.10
5576;DHT22;2810;50.134;8.626;2023-04-25T09:52:03;18.10;61.00
5576;DHT22;2810;50.134;8.626;2023-04-25T09:54:29;17.00;64.70
5576;DHT22;2810;50.134;8.626;2023-04-25T09:56:54;16.30;69.70
5576;DHT22;2810;50.134;8.626;2023-04-25T10:28:58;14.30;84.10
5576;DHT22;2810;50.134;8.626;2023-04-25T10:31:25;14.20;84.90
5576;DHT22;2810;50.134;8.626;2023-04-25T10:33:52;13.90;86.70
5576;DHT22;2810;50.134;8.626;2023-04-25T10:36:21;13.60;92.00
5576;DHT22;2810;50.134;8.626;2023-04-25T10:38:48;13.30;94.70
5576;DHT22;2810;50.134;8.626;2023-04-25T10:41:17;13.10;97.70
5576;DHT22;2810;50.134;8.626;2023-04-25T11:02:09;11.90;99.90
5576;DHT22;2810;50.134;8.626;2023-04-25T11:04:37;12.50;99.90
5576;DHT22;2810;50.134;8.626;2023-04-25T11:09:48;12.30;99.90
5576;DHT22;2810;50.134;8.626;2023-04-25T11:12:14;12.50;99.90
5576;DHT22;2810;50.134;8.626;2023-04-25T11:14:40;12.40;99.90
5576;DHT22;2810;50.134;8.626;2023-04-25T11:17:07;12.50;99.90
5576;DHT22;2810;50.134;8.626;2023-04-25T11:19:32;13.00;99.90
5576;DHT22;2810;50.134;8.626;2023-04-25T11:21:59;12.70;99.90
5576;DHT22;2810;50.134;8.626;2023-04-25T11:24:34;12.60;99.90
5576;DHT22;2810;50.134;8.626;2023-04-25T11:27:01;12.50;99.90
5576;DHT22;2810;50.134;8.626;2023-04-25T11:29:30;12.40;99.90
5576;DHT22;2810;50.134;8.626;2023-04-25T11:31:56;12.30;99.90
5576;DHT22;2810;50.134;8.626;2023-04-25T11:34:23;12.40;99.90
5576;DHT22;2810;50.134;8.626;2023-04-25T11:36:49;13.20;99.90
5576;DHT22;2810;50.134;8.626;2023-04-25T11:39:15;13.10;99.90
5576;DHT22;2810;50.134;8.626;2023-04-25T11:41:41;13.60;96.00
5576;DHT22;2810;50.134;8.626;2023-04-25T11:44:07;13.90;93.20
5576;DHT22;2810;50.134;8.626;2023-04-25T11:46:35;13.90;89.60
5576;DHT22;2810;50.134;8.626;2023-04-25T11:49:01;13.60;90.20
5576;DHT22;2810;50.134;8.626;2023-04-25T11:51:26;13.90;91.20
5576;DHT22;2810;50.134;8.626;2023-04-25T11:53:52;13.50;91.80
5576;DHT22;2810;50.134;8.626;2023-04-25T11:56:17;13.60;92.60
5576;DHT22;2810;50.134;8.626;2023-04-25T12:01:33;13.50;91.00
5576;DHT22;2810;50.134;8.626;2023-04-25T12:04:10;13.30;91.80
5576;DHT22;2810;50.134;8.626;2023-04-25T12:06:39;13.10;93.20
5576;DHT22;2810;50.134;8.626;2023-04-25T12:09:07;13.00;92.30
5576;DHT22;2810;50.134;8.626;2023-04-25T12:11:32;13.30;92.90
5576;DHT22;2810;50.134;8.626;2023-04-25T12:14:05;12.90;92.00
5576;DHT22;2810;50.134;8.626;2023-04-25T12:16:40;12.80;93.30
5576;DHT22;2810;50.134;8.626;2023-04-25T12:19:06;12.90;93.10
5576;DHT22;2810;50.134;8.626;2023-04-25T12:21:32;13.00;91.90
5576;DHT22;2810;50.134;8.626;2023-04-25T12:24:09;12.60;92.10
5576;DHT22;2810;50.134;8.626;2023-04-25T12:26:47;12.50;92.50
5576;DHT22;2810;50.134;8.626;2023-04-25T12:29:19;12.40;93.90
5576;DHT22;2810;50.134;8.626;2023-04-25T12:31:45;12.30;95.10
5576;DHT22;2810;50.134;8.626;2023-04-25T12:34:10;12.10;94.20
5576;DHT22;2810;50.134;8.626;2023-04-25T12:36:36;12.10;95.80
5576;DHT22;2810;50.134;8.626;2023-04-25T12:39:02;12.20;95.90
5576;DHT22;2810;50.134;8.626;2023-04-25T12:41:29;12.20;95.00
5576;DHT22;2810;50.134;8.626;2023-04-25T12:43:55;12.10;95.80
5576;DHT22;2810;50.134;8.626;2023-04-25T12:46:20;12.30;94.90
5576;DHT22;2810;50.134;8.626;2023-04-25T12:48:46;12.40;94.50
5576;DHT22;2810;50.134;8.626;2023-04-25T12:51:11;12.80;94.00
5576;DHT22;2810;50.134;8.626;2023-04-25T12:53:37;13.20;92.50
5576;DHT22;2810;50.134;8.626;2023-04-25T12:56:06;13.40;92.80
5576;DHT22;2810;50.134;8.626;2023-04-25T12:58:31;13.80;91.80
5576;DHT22;2810;50.134;8.626;2023-04-25T13:00:58;13.90;88.40
5576;DHT22;2810;50.134;8.626;2023-04-25T13:03:24;14.00;87.70
5576;DHT22;2810;50.134;8.626;2023-04-25T13:05:50;13.70;87.70
5576;DHT22;2810;50.134;8.626;2023-04-25T13:08:18;13.90;86.70
5576;DHT22;2810;50.134;8.626;2023-04-25T13:10:43;14.40;86.20
5576;DHT22;2810;50.134;8.626;2023-04-25T13:13:09;14.20;89.20
5576;DHT22;2810;50.134;8.626;2023-04-25T13:15:34;14.40;88.40
5576;DHT22;2810;50.134;8.626;2023-04-25T13:18:00;14.60;83.30
5576;DHT22;2810;50.134;8.626;2023-04-25T13:20:26;14.90;83.20
5576;DHT22;2810;50.134;8.626;2023-04-25T13:22:51;14.70;83.10
5576;DHT22;2810;50.134;8.626;2023-04-25T13:25:17;14.50;80.00
5576;DHT22;2810;50.134;8.626;2023-04-25T13:27:42;14.50;79.60
5576;DHT22;2810;50.134;8.626;2023-04-25T13:30:09;14.90;81.10
5576;DHT22;2810;50.134;8.626;2023-04-25T13:32:35;14.50;78.00
5576;DHT22;2810;50.134;8.626;2023-04-25T13:35:01;14.60;76.90
5576;DHT22;2810;50.134;8.626;2023-04-25T13:37:27;14.50;77.50
5576;DHT22;2810;50.134;8.626;2023-04-25T13:39:55;14.50;80.30
5576;DHT22;2810;50.134;8.626;2023-04-25T13:42:21;14.20;79.80
5576;DHT22;2810;50.134;8.626;2023-04-25T13:44:47;14.10;80.30
5576;DHT22;2810;50.134;8.626;2023-04-25T13:47:12;14.10;82.00
5576;DHT22;2810;50.134;8.626;2023-04-25T13:49:38;14.00;81.60
5576;DHT22;2810;50.134;8.626;2023-04-25T13:52:03;13.70;82.00
5576;DHT22;2810;50.134;8.626;2023-04-25T13:54:29;13.70;83.30
5576;DHT22;2810;50.134;8.626;2023-04-25T13:56:54;13.70;84.60
5576;DHT22;2810;50.134;8.626;2023-04-25T13:59:23;13.70;82.10
5576;DHT22;2810;50.134;8.626;2023-04-25T14:01:49;13.60;83.60
5576;DHT22;2810;50.134;8.626;2023-04-25T14:04:15;13.60;83.50
5576;DHT22;2810;50.134;8.626;2023-04-25T14:06:40;13.70;83.00
5576;DHT22;2810;50.134;8.626;2023-04-25T14:09:06;13.40;79.30
5576;DHT22;2810;50.134;8.626;2023-04-25T14:11:38;13.90;78.50
5576;DHT22;2810;50.134;8.626;2023-04-25T14:14:03;13.90;79.60
5576;DHT22;2810;50.134;8.626;2023-04-25T14:16:29;14.00;80.70
5576;DHT22;2810;50.134;8.626;2023-04-25T14:18:55;13.90;82.80
5576;DHT22;2810;50.134;8.626;2023-04-25T14:21:21;13.80;78.80
5576;DHT22;2810;50.134;8.626;2023-04-25T14:23:46;13.80;81.30
5576;DHT22;2810;50.134;8.626;2023-04-25T14:26:12;13.70;82.10
5576;DHT22;2810;50.134;8.626;2023-04-25T14:28:38;14.00;79.60
5576;DHT22;2810;50.134;8.626;2023-04-25T14:31:03;13.40;76.50
5576;DHT22;2810;50.134;8.626;2023-04-25T14:33:29;13.30;77.70
5576;DHT22;2810;50.134;8.626;2023-04-25T14:35:55;13.50;78.70
5576;DHT22;2810;50.134;8.626;2023-04-25T14:38:21;13.10;80.10
5576;DHT22;2810;50.134;8.626;2023-04-25T14:40:49;13.00;80.70
5576;DHT22;2810;50.134;8.626;2023-04-25T14:43:14;13.20;79.90
5576;DHT22;2810;50.134;8.626;2023-04-25T14:45:40;12.80;79.00
5576;DHT22;2810;50.134;8.626;2023-04-25T14:48:05;12.80;77.40
5576;DHT22;2810;50.134;8.626;2023-04-25T14:50:32;12.80;78.30
5576;DHT22;2810;50.134;8.626;2023-04-25T14:52:57;12.80;77.80
5576;DHT22;2810;50.134;8.626;2023-04-25T14:55:24;12.70;77.90
5576;DHT22;2810;50.134;8.626;2023-04-25T14:57:49;12.60;81.20
5576;DHT22;2810;50.134;8.626;2023-04-25T15:00:15;12.70;78.80
5576;DHT22;2810;50.134;8.626;2023-04-25T15:02:41;12.80;78.10
5576;DHT22;2810;50.134;8.626;2023-04-25T15:05:07;12.80;78.80
5576;DHT22;2810;50.134;8.626;2023-04-25T15:07:33;12.80;79.50
5576;DHT22;2810;50.134;8.626;2023-04-25T15:10:00;12.80;82.20
5576;DHT22;2810;50.134;8.626;2023-04-25T15:12:25;13.30;81.90
5576;DHT22;2810;50.134;8.626;2023-04-25T15:14:53;13.00;81.00
5576;DHT22;2810;50.134;8.626;2023-04-25T15:17:19;13.00;81.50
5576;DHT22;2810;50.134;8.626;2023-04-25T15:19:44;13.20;82.60
5576;DHT22;2810;50.134;8.626;2023-04-25T15:22:10;13.10;82.40
5576;DHT22;2810;50.134;8.626;2023-04-25T15:24:36;13.30;84.20
5576;DHT22;2810;50.134;8.626;2023-04-25T15:27:01;13.00;83.70
5576;DHT22;2810;50.134;8.626;2023-04-25T15:29:29;13.00;85.70
5576;DHT22;2810;50.134;8.626;2023-04-25T15:31:55;13.10;83.80
5576;DHT22;2810;50.134;8.626;2023-04-25T15:34:20;13.20;83.00
5576;DHT22;2810;50.134;8.626;2023-04-25T15:36:46;13.20;82.70
5576;DHT22;2810;50.134;8.626;2023-04-25T15:39:12;13.20;82.60
5576;DHT22;2810;50.134;8.626;2023-04-25T15:41:37;13.60;82.60
5576;DHT22;2810;50.134;8.626;2023-04-25T15:44:02;13.20;81.00
5576;DHT22;2810;50.134;8.626;2023-04-25T15:46:28;13.00;82.30
5576;DHT22;2810;50.134;8.626;2023-04-25T15:48:55;13.20;85.20
5576;DHT22;2810;50.134;8.626;2023-04-25T15:51:21;13.00;81.30
5576;DHT22;2810;50.134;8.626;2023-04-25T15:53:46;12.90;75.00
5576;DHT22;2810;50.134;8.626;2023-04-25T15:56:11;12.80;75.40
5576;DHT22;2810;50.134;8.626;2023-04-25T15:58:37;12.90;75.60
5576;DHT22;2810;50.134;8.626;2023-04-25T16:01:02;13.30;79.80
5576;DHT22;2810;50.134;8.626;2023-04-25T16:03:29;13.10;77.70
5576;DHT22;2810;50.134;8.626;2023-04-25T16:05:55;13.00;75.20
5576;DHT22;2810;50.134;8.626;2023-04-25T16:08:20;13.00;77.00
5576;DHT22;2810;50.134;8.626;2023-04-25T16:10:45;12.90;78.50
5576;DHT22;2810;50.134;8.626;2023-04-25T16:13:11;12.90;76.50
5576;DHT22;2810;50.134;8.626;2023-04-25T16:15:36;12.80;76.40
5576;DHT22;2810;50.134;8.626;2023-04-25T16:18:02;12.80;75.60
5576;DHT22;2810;50.134;8.626;2023-04-25T16:20:28;12.80;76.60
5576;DHT22;2810;50.134;8.626;2023-04-25T16:22:53;12.70;76.50
5576;DHT22;2810;50.134;8.626;2023-04-25T16:25:19;12.70;76.30
5576;DHT22;2810;50.134;8.626;2023-04-25T16:27:46;12.60;76.90
5576;DHT22;2810;50.134;8.626;2023-04-25T16:30:12;12.60;76.90
5576;DHT22;2810;50.134;8.626;2023-04-25T16:32:38;12.50;79.30
5576;DHT22;2810;50.134;8.626;2023-04-25T16:35:04;12.40;78.10
5576;DHT22;2810;50.134;8.626;2023-04-25T16:37:30;12.40;77.60
5576;DHT22;2810;50.134;8.626;2023-04-25T16:39:55;12.30;79.30
5576;DHT22;2810;50.134;8.626;2023-04-25T16:42:21;12.20;81.80
5576;DHT22;2810;50.134;8.626;2023-04-25T16:44:46;12.20;81.00
5576;DHT22;2810;50.134;8.626;2023-04-25T16:47:12;12.50;81.40
5576;DHT22;2810;50.134;8.626;2023-04-25T16:49:37;12.20;83.30
5576;DHT22;2810;50.134;8.626;2023-04-25T16:52:03;12.20;84.40
5576;DHT22;2810;50.134;8.626;2023-04-25T16:54:29;12.20;82.90